M I D A S
Marine Information and Data Acquisition System
Tripno 987 of the Zeeleeuw from 2005-11-24 10:02:20 to 2005-11-24 11:46:52
Back to CruiseResearch ActivitiesStationsMapUnderway DataData graphs

EquipmentUnitsComment
TimeDGPSUTC
LatitudeDGPSDM.mWGS84
LongitudeDGPSDM.mWGS84
TemperatureSBE03/SBE38deg celciusITS90
ConductivitySBE21S/mITS90
SalinitySBE21 Practical Salinity Units
ChlorophylAChelsea fluorimeterg/lCalibrated in Aceton
Missing or incorrect values are displayed as -999
Sea surface data collected by the RV Zeeleeuw from 2005-11-24 06:05:56 to 2005-11-24 12:00:24
Time Latitude Longitude Temperature Conductivity Salinity ChlorophylA
2005-11-24 06:07:00 51°13.598 2°56.094 -999 4.207 32.529977 -0.74754
2005-11-24 06:08:00 51°13.599 2°56.094 -999 4.207311 32.530054 -0.74754
2005-11-24 06:09:00 51°13.598 2°56.095 -999 4.207622 32.53013 -0.74754
2005-11-24 06:10:00 51°13.598 2°56.094 -999 4.20783 32.529311 -0.74754
2005-11-24 06:11:00 51°13.599 2°56.095 -999 4.208037 32.528492 -0.74754
2005-11-24 06:12:00 51°13.598 2°56.095 -999 4.208348 32.527917 -0.74754
2005-11-24 06:13:00 51°13.602 2°56.064 -999 4.208555 32.52775 -0.74754
2005-11-24 06:14:00 51°13.596 2°56.08 -999 4.208763 32.527584 -0.74754
2005-11-24 06:15:00 51°13.56 2°56.165 -999 4.209074 32.527009 -0.74754
2005-11-24 06:16:00 51°13.534 2°56.214 -999 4.209178 32.528556 -0.74754
2005-11-24 06:17:00 51°13.542 2°56.214 -999 4.209385 32.525782 -0.74754
2005-11-24 06:18:00 51°13.535 2°56.212 -999 4.209592 32.52692 -0.74754
2005-11-24 06:19:00 51°13.538 2°56.202 -999 4.209903 32.526997 -0.74754
2005-11-24 06:20:00 51°13.554 2°56.15 -999 4.210007 32.525936 -0.74754
2005-11-24 06:21:00 51°13.564 2°56.123 -999 4.210214 32.524467 -0.74754
2005-11-24 06:22:00 51°13.574 2°56.094 -999 4.210422 32.524301 -0.74754
2005-11-24 06:23:00 51°13.589 2°56.06 -999 4.210525 32.523241 -0.74754
2005-11-24 06:24:00 51°13.601 2°56.034 -999 4.210733 32.523076 -0.74754
2005-11-24 06:25:00 51°13.608 2°56.024 -999 4.21094 32.522259 -0.74754
2005-11-24 06:26:00 51°13.622 2°56 -999 4.211148 32.522094 -0.74754
2005-11-24 06:27:00 51°13.642 2°55.953 -999 4.211251 32.520383 -0.74754
2005-11-24 06:28:00 51°13.677 2°55.857 -999 4.211459 32.52152 -0.74754
2005-11-24 06:29:00 51°13.739 2°55.738 -999 4.211562 32.521112 -0.74754
2005-11-24 06:30:00 51°13.815 2°55.642 -999 4.211666 32.519402 -0.74754
2005-11-24 06:31:00 51°13.91 2°55.57 -999 4.21177 32.518994 -0.74754
2005-11-24 06:32:00 51°14.016 2°55.501 -999 4.211977 32.518829 -0.74754
2005-11-24 06:33:00 51°14.135 2°55.42 -999 4.212081 32.518421 -0.74754
2005-11-24 06:34:00 51°14.245 2°55.296 -999 4.212184 32.517362 -0.74754
2005-11-24 06:35:00 51°14.342 2°55.101 -999 4.212288 32.516304 -0.74754
2005-11-24 06:36:00 51°14.456 2°54.893 -999 4.212495 32.518742 -0.74754
2005-11-24 06:37:00 51°14.576 2°54.642 -999 4.212703 32.517927 -0.74754
2005-11-24 06:38:00 51°14.688 2°54.364 -999 4.212807 32.517519 -0.74754
2005-11-24 06:39:00 51°14.791 2°54.079 -999 4.21291 32.517762 -0.74754
2005-11-24 06:40:00 51°14.891 2°53.787 -999 4.21291 32.51581 -0.74754
2005-11-24 06:41:00 51°14.99 2°53.493 -999 4.213014 32.516053 -0.74754
2005-11-24 06:42:00 51°15.08 2°53.193 -999 4.213014 32.515403 -0.74754
2005-11-24 06:43:00 51°15.169 2°52.894 -999 4.213118 32.515646 -0.74754
2005-11-24 06:44:00 51°15.248 2°52.589 -999 4.213014 32.514752 -0.74754
2005-11-24 06:45:00 51°15.327 2°52.284 -999 4.213014 32.514101 -0.74754
2005-11-24 06:46:00 51°15.408 2°51.98 -999 4.21291 32.513208 -0.74754
2005-11-24 06:47:00 51°15.488 2°51.676 -999 4.213014 32.514101 -0.74754
2005-11-24 06:48:00 51°15.544 2°51.362 -999 4.21291 32.511907 -0.74754
2005-11-24 06:49:00 51°15.587 2°51.045 -999 4.21291 32.511907 -0.74754
2005-11-24 06:50:00 51°15.597 2°50.724 -999 4.212806 32.510363 -0.74754
2005-11-24 06:51:00 51°15.591 2°50.403 -999 4.212703 32.509469 -0.74754
2005-11-24 06:52:00 51°15.577 2°50.083 -999 4.212495 32.507682 -0.74754
2005-11-24 06:53:00 51°15.564 2°49.763 -999 4.212288 32.505895 -0.74754
2005-11-24 06:54:00 51°15.552 2°49.445 -999 4.212288 32.505895 -0.74754
2005-11-24 06:55:00 51°15.54 2°49.126 -999 4.212184 32.505651 -0.74754
2005-11-24 06:56:00 51°15.529 2°48.807 -999 4.211977 32.504515 -0.74754
2005-11-24 06:57:00 51°15.519 2°48.488 -999 4.211769 32.504028 -0.74754
2005-11-24 06:58:00 51°15.507 2°48.168 -999 4.211562 32.503541 -0.74754
2005-11-24 06:59:00 51°15.496 2°47.846 -999 4.211251 32.502161 -0.71383
2005-11-24 07:00:00 51°15.486 2°47.526 -999 4.21094 32.500781 -0.74754
2005-11-24 07:01:00 51°15.477 2°47.207 -999 4.210629 32.500051 -0.74754
2005-11-24 07:02:00 51°15.465 2°46.89 -999 4.21011 32.497533 -0.74754
2005-11-24 07:03:00 51°15.447 2°46.577 -999 4.209695 32.495259 -0.74754
2005-11-24 07:04:00 51°15.427 2°46.263 -999 4.209281 32.493635 -0.74754
2005-11-24 07:05:00 51°15.406 2°45.949 -999 4.208866 32.49201 -0.74754
2005-11-24 07:06:00 51°15.385 2°45.636 -999 4.208451 32.490386 -0.74754
2005-11-24 07:07:00 51°15.367 2°45.322 -999 4.207933 32.488518 -0.74754
2005-11-24 07:08:00 51°15.349 2°45.006 -999 4.207414 32.48665 -0.74754
2005-11-24 07:09:00 51°15.331 2°44.689 -999 4.206896 32.484782 -0.74754
2005-11-24 07:10:00 51°15.324 2°44.37 -999 4.206377 32.482913 -0.74754
2005-11-24 07:11:00 51°15.321 2°44.05 -999 4.205859 32.480394 -0.74754
2005-11-24 07:12:00 51°15.318 2°43.731 -999 4.20534 32.478525 -0.74754
2005-11-24 07:13:00 51°15.316 2°43.411 -999 4.204822 32.476656 -0.71383
2005-11-24 07:14:00 51°15.314 2°43.092 -999 4.204303 32.475437 -0.74754
2005-11-24 07:15:00 51°15.326 2°42.772 -999 4.203681 32.472673 -0.74754
2005-11-24 07:16:00 51°15.341 2°42.453 -999 4.203266 32.471698 -0.74754
2005-11-24 07:17:00 51°15.357 2°42.132 -999 4.202644 32.468934 -0.74754
2005-11-24 07:18:00 51°15.373 2°41.81 -999 4.202126 32.467714 -0.74754
2005-11-24 07:19:00 51°15.389 2°41.486 -999 4.201607 32.467146 -0.74754
2005-11-24 07:20:00 51°15.405 2°41.18 -999 4.200985 32.465032 -0.74754
2005-11-24 07:21:00 51°15.438 2°41.042 -999 4.200467 32.463161 -0.74754
2005-11-24 07:22:00 51°15.47 2°41.014 -999 4.199845 32.461046 -0.74754
2005-11-24 07:23:00 51°15.489 2°41.036 -999 4.19943 32.45942 -0.74754
2005-11-24 07:24:00 51°15.507 2°41.059 -999 4.198808 32.456003 -0.74754
2005-11-24 07:25:00 51°15.526 2°41.084 -999 4.198497 32.455921 -0.71383
2005-11-24 07:26:00 51°15.583 2°41.006 -999 4.198186 32.459096 -0.74754
2005-11-24 07:27:00 51°15.587 2°40.729 -999 4.197771 32.454864 -0.71383
2005-11-24 07:28:00 51°15.567 2°40.412 -999 4.197252 32.453643 -0.74754
2005-11-24 07:29:00 51°15.549 2°40.092 -999 4.196734 32.452423 -0.74754
2005-11-24 07:30:00 51°15.532 2°39.775 -999 4.196215 32.450551 -0.74754
2005-11-24 07:31:00 51°15.508 2°39.458 -999 4.195697 32.448679 -0.74754
2005-11-24 07:32:00 51°15.484 2°39.142 -999 4.195178 32.446807 -0.74754
2005-11-24 07:33:00 51°15.458 2°38.825 -999 4.19466 32.444934 -0.74754
2005-11-24 07:34:00 51°15.432 2°38.509 -999 4.194142 32.443713 -0.74754
2005-11-24 07:35:00 51°15.404 2°38.195 -999 4.193623 32.443143 -0.74754
2005-11-24 07:36:00 51°15.375 2°37.882 -999 4.193105 32.44127 -0.71383
2005-11-24 07:37:00 51°15.345 2°37.571 -999 4.192483 32.439153 -0.74754
2005-11-24 07:38:00 51°15.318 2°37.258 -999 4.191964 32.438583 -0.74754
2005-11-24 07:39:00 51°15.291 2°36.944 -999 4.191446 32.437361 -0.74754
2005-11-24 07:40:00 51°15.263 2°36.63 -999 4.190824 32.436546 -0.74754
2005-11-24 07:41:00 51°15.236 2°36.316 -999 4.190098 32.434835 -0.71383
2005-11-24 07:42:00 51°15.209 2°36.003 -999 4.189476 32.433369 -0.74754
2005-11-24 07:43:00 51°15.182 2°35.692 -999 4.18875 32.43231 -0.74754
2005-11-24 07:44:00 51°15.152 2°35.382 -999 4.188024 32.430598 -0.71383
2005-11-24 07:45:00 51°15.122 2°35.073 -999 4.187402 32.429783 -0.74754
2005-11-24 07:46:00 51°15.092 2°34.763 -999 4.186572 32.427175 -0.74754
2005-11-24 07:47:00 51°15.06 2°34.452 -999 4.185847 32.426115 -0.74754
2005-11-24 07:48:00 51°15.023 2°34.141 -999 4.185017 32.424811 -0.71383
2005-11-24 07:49:00 51°14.976 2°33.83 -999 4.184188 32.422854 -0.74754
2005-11-24 07:50:00 51°14.93 2°33.519 -999 4.183254 32.420653 -0.74754
2005-11-24 07:51:00 51°14.895 2°33.239 -999 4.182425 32.42 -0.71383
2005-11-24 07:52:00 51°14.933 2°33.078 -999 4.181388 32.416901 -0.74754
2005-11-24 07:53:00 51°14.99 2°33.025 -999 4.180455 32.414698 -0.71383
2005-11-24 07:54:00 51°15.004 2°33.051 -999 4.179522 32.412495 -0.71383
2005-11-24 07:55:00 51°15.016 2°33.081 -999 4.178588 32.408986 -0.74754
2005-11-24 07:56:00 51°15.03 2°33.113 -999 4.177966 32.408823 -0.74754
2005-11-24 07:57:00 51°15.045 2°33.148 -999 4.177033 32.405966 -0.74754
2005-11-24 07:58:00 51°15.061 2°33.181 -999 4.176307 32.405558 -0.71383
2005-11-24 07:59:00 51°15.078 2°33.214 -999 4.175478 32.403599 -0.71383
2005-11-24 08:00:00 51°15.105 2°33.241 -999 4.174648 32.402292 -0.74754
2005-11-24 08:01:00 51°15.147 2°33.219 -999 4.173819 32.399679 -0.71383
2005-11-24 08:02:00 51°15.156 2°33.171 -999 4.173093 32.398617 -0.71383
2005-11-24 08:03:00 51°15.106 2°33.133 -999 4.17216 32.394451 -0.74754
2005-11-24 08:04:00 51°15.031 2°33.096 -999 4.171123 32.391346 -0.71383
2005-11-24 08:05:00 51°14.97 2°33.051 -999 4.170397 32.388976 -0.71383
2005-11-24 08:06:00 51°14.948 2°33.025 -999 4.169775 32.387505 -0.71383
2005-11-24 08:07:00 51°14.939 2°33 -999 4.169153 32.386688 -0.71383
2005-11-24 08:08:00 51°14.954 2°32.992 -999 4.168427 32.386279 -0.74754
2005-11-24 08:09:01 51°14.964 2°33.023 -999 4.167805 32.384807 -0.71383
2005-11-24 08:10:00 51°14.983 2°33.049 -999 4.167287 32.382927 -0.71383
2005-11-24 08:11:00 51°15 2°33.08 -999 4.166768 32.382355 -0.74754
2005-11-24 08:12:00 51°15.014 2°33.11 -999 4.16625 32.379166 -0.71383
2005-11-24 08:13:00 51°15.029 2°33.14 -999 4.165732 32.377939 -0.71383
2005-11-24 08:14:00 51°15.042 2°33.173 -999 4.165421 32.377857 -0.71383
2005-11-24 08:15:00 51°15.057 2°33.207 -999 4.164798 32.37573 -0.71383
2005-11-24 08:16:00 51°15.07 2°33.243 -999 4.164487 32.375648 -0.71383
2005-11-24 08:17:00 51°15.084 2°33.277 -999 4.164176 32.376221 -0.71383
2005-11-24 08:18:00 51°15.097 2°33.31 -999 4.163658 32.374339 -0.71383
2005-11-24 08:19:00 51°15.111 2°33.342 -999 4.163243 32.374012 -0.71383
2005-11-24 08:20:00 51°15.125 2°33.375 -999 4.162725 32.374094 -0.71383
2005-11-24 08:21:00 51°15.141 2°33.407 -999 4.16231 32.375077 -0.71383
2005-11-24 08:22:00 51°15.157 2°33.438 -999 4.161584 32.373358 -0.71383
2005-11-24 08:23:00 51°15.173 2°33.471 -999 4.161066 32.374751 -0.71383
2005-11-24 08:24:00 51°15.202 2°33.491 -999 4.16034 32.374998 -0.71383
2005-11-24 08:25:00 51°15.238 2°33.447 -999 4.159511 32.372379 -0.71383
2005-11-24 08:26:00 51°15.206 2°33.39 -999 4.158889 32.368941 -0.71383
2005-11-24 08:27:00 51°15.142 2°33.318 -999 4.158059 32.366321 -0.71383
2005-11-24 08:28:00 51°15.083 2°33.219 -999 4.157334 32.367224 -0.71383
2005-11-24 08:29:00 51°15.02 2°33.123 -999 4.156608 32.366816 -0.71383
2005-11-24 08:30:00 51°14.984 2°33.056 -999 4.155675 32.366573 -0.71383
2005-11-24 08:31:00 51°14.963 2°33.028 -999 4.154845 32.367231 -0.71383
2005-11-24 08:32:00 51°14.963 2°33.039 -999 4.153601 32.36494 -0.71383
2005-11-24 08:33:00 51°14.976 2°33.075 -999 4.152564 32.363797 -0.71383
2005-11-24 08:34:00 51°14.996 2°33.108 -999 4.15132 32.360192 -0.71383
2005-11-24 08:35:00 51°15.014 2°33.135 -999 4.150387 32.359294 -0.71383
2005-11-24 08:36:00 51°15.032 2°33.159 -999 4.149039 32.353473 -0.71383
2005-11-24 08:37:01 51°15.046 2°33.179 -999 4.148106 32.351261 -0.71383
2005-11-24 08:38:00 51°15.049 2°33.21 -999 4.147173 32.348391 -0.71383
2005-11-24 08:39:00 51°15.048 2°33.237 -999 4.146344 32.345767 -0.71383
2005-11-24 08:40:00 51°15.047 2°33.264 -999 4.145721 32.342978 -0.71383
2005-11-24 08:41:00 51°15.05 2°33.292 -999 4.145099 32.341502 -0.71383
2005-11-24 08:42:00 51°15.057 2°33.322 -999 4.144685 32.341175 -0.71383
2005-11-24 08:43:00 51°15.066 2°33.349 -999 4.14427 32.340191 -0.71383
2005-11-24 08:44:00 51°15.076 2°33.377 -999 4.14427 32.342819 -0.71383
2005-11-24 08:45:00 51°15.062 2°33.411 -999 4.143337 32.337319 -0.71383
2005-11-24 08:46:00 51°15.026 2°33.365 -999 4.143026 32.337238 -0.71383
2005-11-24 08:47:00 51°15.012 2°33.253 -999 4.142819 32.339375 -0.71383
2005-11-24 08:48:00 51°14.981 2°33.136 -999 4.1423 32.338144 -0.71383
2005-11-24 08:49:00 51°14.952 2°33.08 -999 4.141989 32.338063 -0.71383
2005-11-24 08:50:00 51°14.953 2°33.043 -999 4.141471 32.33749 -0.71383
2005-11-24 08:51:00 51°14.955 2°33.025 -999 4.140952 32.338233 -0.71383
2005-11-24 08:52:00 51°14.956 2°33.027 -999 4.14033 32.338071 -0.71383
2005-11-24 08:53:00 51°14.958 2°33.004 -999 4.139812 32.339472 -0.71383
2005-11-24 08:54:00 51°14.966 2°33.027 -999 4.139086 32.339066 -0.71383
2005-11-24 08:55:00 51°14.978 2°33.047 -999 4.138464 32.338247 -0.71383
2005-11-24 08:56:00 51°14.997 2°33.063 -999 4.137946 32.338992 -0.71383
2005-11-24 08:57:00 51°15.019 2°33.07 -999 4.137324 32.338832 -0.71383
2005-11-24 08:58:00 51°15.039 2°33.071 -999 4.136702 32.339331 -0.71383
2005-11-24 08:59:00 51°15.033 2°33.014 -999 4.135976 32.340243 -0.71383
2005-11-24 09:00:00 51°14.975 2°32.984 -999 4.13525 32.334568 -0.71383
2005-11-24 09:01:00 51°14.912 2°32.953 -999 4.134525 32.338774 -0.71383
2005-11-24 09:02:00 51°14.869 2°32.915 -999 4.133592 32.335241 -0.71383
2005-11-24 09:03:00 51°14.856 2°32.879 -999 4.132762 32.336568 -0.71383
2005-11-24 09:04:00 51°14.864 2°32.859 -999 4.131829 32.333693 -0.71383
2005-11-24 09:05:00 51°14.88 2°32.873 -999 4.130896 32.334775 -0.71383
2005-11-24 09:06:00 51°14.893 2°32.898 -999 4.129963 32.333879 -0.71383
2005-11-24 09:07:00 51°14.904 2°32.924 -999 4.129134 32.332569 -0.71383
2005-11-24 09:08:00 51°14.914 2°32.951 -999 4.128097 32.328787 -0.71383
2005-11-24 09:09:00 51°14.929 2°32.973 -999 4.127268 32.328797 -0.71383
2005-11-24 09:10:00 51°14.963 2°32.943 -999 4.126335 32.329882 -0.71383
2005-11-24 09:11:00 51°14.974 2°32.876 -999 4.125402 32.327005 -0.71383
2005-11-24 09:12:00 51°14.968 2°32.797 -999 4.124365 32.325202 -0.71383
2005-11-24 09:13:00 51°14.946 2°32.764 -999 4.123328 32.322739 -0.71383
2005-11-24 09:14:00 51°14.934 2°32.773 -999 4.122499 32.320768 -0.71383
2005-11-24 09:15:00 51°14.931 2°32.796 -999 4.121462 32.318304 -0.71383
2005-11-24 09:16:00 51°14.932 2°32.822 -999 4.120425 32.317161 -0.71383
2005-11-24 09:17:00 51°14.935 2°32.85 -999 4.119492 32.316265 -0.71383
2005-11-24 09:18:00 51°14.938 2°32.878 -999 4.118559 32.313385 -0.71383
2005-11-24 09:19:00 51°14.94 2°32.904 -999 4.11773 32.312735 -0.71383
2005-11-24 09:20:00 51°14.964 2°32.918 -999 4.116693 32.308947 -0.71383
2005-11-24 09:21:00 51°14.99 2°32.919 -999 4.115967 32.306559 -0.71383
2005-11-24 09:22:00 51°15.006 2°32.927 -999 4.115034 32.302355 -0.71383
2005-11-24 09:23:00 51°15.017 2°32.948 -999 4.11462 32.302691 -0.71383
2005-11-24 09:24:00 51°15.025 2°32.973 -999 4.113998 32.303195 -0.71383
2005-11-24 09:25:00 51°15.029 2°32.998 -999 4.113479 32.3013 -0.71383
2005-11-24 09:26:00 51°15.055 2°33.011 -999 4.112754 32.299573 -0.71383
2005-11-24 09:27:00 51°15.073 2°33.022 -999 4.112339 32.300571 -0.71383
2005-11-24 09:28:00 51°15.084 2°33.044 -999 4.111717 32.298429 -0.71383
2005-11-24 09:29:00 51°15.089 2°33.07 -999 4.111199 32.298519 -0.71383
2005-11-24 09:30:00 51°15.093 2°33.096 -999 4.110784 32.299518 -0.71383
2005-11-24 09:31:00 51°15.098 2°33.122 -999 4.110058 32.297128 -0.71383
2005-11-24 09:32:00 51°15.105 2°33.15 -999 4.109644 32.296803 -0.71383
2005-11-24 09:33:00 51°15.113 2°33.178 -999 4.109125 32.297556 -0.71383
2005-11-24 09:34:00 51°15.121 2°33.205 -999 4.108607 32.297647 -0.71383
2005-11-24 09:35:00 51°15.126 2°33.235 -999 4.108089 32.296413 -0.71383
2005-11-24 09:36:00 51°15.108 2°33.267 -999 4.107674 32.297414 -0.71383
2005-11-24 09:37:00 51°15.076 2°33.277 -999 4.107363 32.299987 -0.71383
2005-11-24 09:38:00 51°15.048 2°33.257 -999 4.106637 32.29826 -0.71383
2005-11-24 09:39:00 51°15.04 2°33.239 -999 4.106119 32.301005 -0.71383
2005-11-24 09:40:00 51°15.048 2°33.234 -999 4.105601 32.303087 -0.71383
2005-11-24 09:41:00 51°15.058 2°33.216 -999 4.104771 32.303104 -0.71383
2005-11-24 09:42:00 51°15.072 2°33.217 -999 4.104046 32.302041 -0.71383
2005-11-24 09:43:00 51°15.091 2°33.204 -999 4.103424 32.302551 -0.71383
2005-11-24 09:44:00 51°15.105 2°33.191 -999 4.102491 32.299003 -0.71383
2005-11-24 09:45:00 51°15.122 2°33.194 -999 4.101869 32.297522 -0.71383
2005-11-24 09:46:00 51°15.135 2°33.169 -999 4.101247 32.297369 -0.71383
2005-11-24 09:47:00 51°15.141 2°33.155 -999 4.100625 32.297216 -0.71383
2005-11-24 09:48:00 51°15.144 2°33.163 -999 4.100003 32.295735 -0.71383
2005-11-24 09:49:00 51°15.136 2°33.172 -999 4.099277 32.294671 -0.71383
2005-11-24 09:50:00 51°15.123 2°33.171 -999 4.098759 32.297424 -0.71383
2005-11-24 09:51:00 51°15.11 2°33.151 -999 4.098033 32.298355 -0.71383
2005-11-24 09:52:00 51°15.105 2°33.143 -999 4.097308 32.299952 -0.71383
2005-11-24 09:53:00 51°15.108 2°33.14 -999 4.096375 32.299061 -0.71383
2005-11-24 09:54:00 51°15.109 2°33.103 -999 4.095442 32.29817 -0.71383
2005-11-24 09:55:00 51°15.123 2°33.097 -999 4.094509 32.295283 -0.71383
2005-11-24 09:56:00 51°15.139 2°33.114 -999 4.093679 32.295304 -0.71383
2005-11-24 09:57:00 51°15.161 2°33.127 -999 4.09285 32.295326 -0.71383
2005-11-24 09:58:00 51°15.186 2°33.133 -999 4.092124 32.295595 -0.71383
2005-11-24 09:59:00 51°15.213 2°33.134 -999 4.091295 32.295618 -0.71383
2005-11-24 10:00:00 51°15.237 2°33.137 -999 4.090362 32.294729 -0.71383
2005-11-24 10:01:00 51°15.261 2°33.141 -999 4.089429 32.293839 -0.71383
2005-11-24 10:02:00 51°15.282 2°33.149 -999 4.0886 32.293197 -0.71383
2005-11-24 10:03:00 51°15.323 2°33.13 -999 4.087667 32.293641 -0.71383
2005-11-24 10:04:00 51°15.345 2°33.046 -999 4.086734 32.292752 -0.71383
2005-11-24 10:05:00 51°15.267 2°32.969 -999 4.085697 32.288282 -0.71383
2005-11-24 10:06:00 51°15.152 2°32.869 -999 4.084764 32.289394 -0.71383
2005-11-24 10:07:00 51°15.051 2°32.871 -999 4.083728 32.292263 -0.71383
2005-11-24 10:08:00 51°15.009 2°32.9 -999 4.082484 32.289967 -0.71383
2005-11-24 10:09:00 51°15 2°32.929 -999 4.081344 32.287918 -0.71383
2005-11-24 10:10:00 51°14.992 2°32.957 -999 4.0801 32.286957 -0.71383
2005-11-24 10:11:00 51°14.987 2°32.979 -999 4.079063 32.283818 -0.71383
2005-11-24 10:12:00 51°14.988 2°33.002 -999 4.078026 32.282015 -0.71383
2005-11-24 10:13:00 51°14.99 2°33.026 -999 4.077093 32.280459 -0.71383
2005-11-24 10:14:00 51°14.995 2°33.049 -999 4.07616 32.276897 -0.71383
2005-11-24 10:15:00 51°15.001 2°33.072 -999 4.075331 32.275588 -0.74754
2005-11-24 10:16:00 51°15.008 2°33.095 -999 4.074709 32.274773 -0.71383
2005-11-24 10:17:00 51°15.014 2°33.117 -999 4.074087 32.273958 -0.71383
2005-11-24 10:18:01 51°15.02 2°33.144 -999 4.073465 32.271805 -0.71383
2005-11-24 10:19:00 51°15.023 2°33.166 -999 4.072947 32.271237 -0.71383
2005-11-24 10:20:00 51°15.028 2°33.189 -999 4.072429 32.27067 -0.71383
2005-11-24 10:21:00 51°15.03 2°33.212 -999 4.072014 32.270349 -0.71383
2005-11-24 10:22:00 51°15.033 2°33.237 -999 4.071599 32.26936 -0.71383
2005-11-24 10:23:00 51°15.038 2°33.264 -999 4.071185 32.26904 -0.71383
2005-11-24 10:24:00 51°15.044 2°33.288 -999 4.07077 32.269389 -0.71383
2005-11-24 10:25:00 51°15.049 2°33.314 -999 4.070355 32.268399 -0.71383
2005-11-24 10:26:00 51°15.056 2°33.341 -999 4.070044 32.269665 -0.71383
2005-11-24 10:27:00 51°15.057 2°33.374 -999 4.069837 32.271179 -0.71383
2005-11-24 10:28:00 51°15.061 2°33.457 -999 4.069526 32.275125 -0.71383
2005-11-24 10:29:00 51°15.107 2°33.522 -999 4.069112 32.275475 -0.71383
2005-11-24 10:30:00 51°15.164 2°33.472 -999 4.068801 32.272724 -0.71383
2005-11-24 10:31:00 51°15.15 2°33.382 -999 4.068593 32.272229 -0.71383
2005-11-24 10:32:00 51°15.101 2°33.277 -999 4.068179 32.27459 -0.71383
2005-11-24 10:33:00 51°15.034 2°33.183 -999 4.067764 32.276952 -0.71383
2005-11-24 10:34:00 51°14.976 2°33.073 -999 4.06735 32.277974 -0.71383
2005-11-24 10:35:00 51°14.959 2°33.014 -999 4.066728 32.279172 -0.71383
2005-11-24 10:36:00 51°14.969 2°33.029 -999 4.066106 32.281713 -0.71383
2005-11-24 10:37:00 51°14.983 2°33.06 -999 4.06538 32.281325 -0.71383
2005-11-24 10:38:00 51°14.99 2°33.098 -999 4.064655 32.281608 -0.71383
2005-11-24 10:39:00 51°14.991 2°33.134 -999 4.063825 32.280302 -0.71383
2005-11-24 10:40:00 51°14.99 2°33.163 -999 4.0631 32.278571 -0.71383
2005-11-24 10:41:00 51°15.024 2°33.199 -999 4.062478 32.279102 -0.71383
2005-11-24 10:42:00 51°15.024 2°33.399 -999 4.061752 32.280729 -0.71383
2005-11-24 10:43:00 51°14.967 2°33.71 -999 4.061027 32.281014 -0.71383
2005-11-24 10:44:00 51°14.931 2°34.047 -999 4.060197 32.279709 -0.71383
2005-11-24 10:45:00 51°14.884 2°34.387 -999 4.059472 32.275962 -0.71383
2005-11-24 10:46:00 51°14.84 2°34.72 -999 4.058746 32.276919 -0.71383
2005-11-24 10:47:00 51°14.79 2°35.056 -999 4.058124 32.273419 -0.74754
2005-11-24 10:48:00 51°14.763 2°35.385 -999 4.057606 32.274871 -0.71383
2005-11-24 10:49:00 51°14.841 2°35.702 -999 4.057191 32.272537 -0.71383
2005-11-24 10:50:00 51°14.929 2°36.015 -999 4.056569 32.271725 -0.71383
2005-11-24 10:51:00 51°14.976 2°36.347 -999 4.056155 32.270736 -0.71383
2005-11-24 10:52:00 51°14.961 2°36.687 -999 4.05574 32.268401 -0.71383
2005-11-24 10:53:00 51°14.941 2°37.021 -999 4.055429 32.267659 -0.71383
2005-11-24 10:54:00 51°14.916 2°37.359 -999 4.055118 32.267589 -0.71383
2005-11-24 10:55:00 51°14.891 2°37.692 -999 4.054807 32.269537 -0.71383
2005-11-24 10:56:00 51°14.861 2°38.029 -999 4.054393 32.26922 -0.71383
2005-11-24 10:57:00 51°14.842 2°38.364 -999 4.054082 32.268478 -0.74754
2005-11-24 10:58:00 51°14.82 2°38.7 -999 4.053874 32.267983 -0.74754
2005-11-24 10:59:00 51°14.797 2°39.038 -999 4.053563 32.268587 -0.71383
2005-11-24 11:00:00 51°14.767 2°39.378 -999 4.053252 32.267844 -0.71383
2005-11-24 11:01:00 51°14.731 2°39.71 -999 4.053045 32.269369 -0.71383
2005-11-24 11:02:00 51°14.701 2°40.038 -999 4.052734 32.269973 -0.74754
2005-11-24 11:03:00 51°14.666 2°40.374 -999 4.052527 32.267458 -0.74754
2005-11-24 11:04:00 51°14.633 2°40.705 -999 4.052319 32.26831 -0.71383
2005-11-24 11:05:00 51°14.596 2°41.039 -999 4.052112 32.268488 -0.71383
2005-11-24 11:06:00 51°14.562 2°41.369 -999 4.051905 32.26934 -0.71383
2005-11-24 11:07:00 51°14.554 2°41.702 -999 4.051698 32.268845 -0.74754
2005-11-24 11:08:00 51°14.543 2°42.041 -999 4.051387 32.269449 -0.74754
2005-11-24 11:09:00 51°14.536 2°42.384 -999 4.051283 32.271223 -0.71383
2005-11-24 11:10:00 51°14.526 2°42.726 -999 4.050972 32.271154 -0.71383
2005-11-24 11:11:00 51°14.512 2°43.073 -999 4.050765 32.271333 -0.71383
2005-11-24 11:12:00 51°14.511 2°43.415 -999 4.050557 32.271512 -0.71383
2005-11-24 11:13:00 51°14.522 2°43.755 -999 4.05035 32.271691 -0.71383
2005-11-24 11:14:00 51°14.527 2°44.093 -999 4.050143 32.273218 -0.74754
2005-11-24 11:15:00 51°14.527 2°44.431 -999 4.050039 32.27297 -0.71383
2005-11-24 11:16:00 51°14.542 2°44.77 -999 4.049832 32.274497 -0.71383
2005-11-24 11:17:00 51°14.562 2°45.106 -999 4.049521 32.273081 -0.71383
2005-11-24 11:18:00 51°14.579 2°45.441 -999 4.049314 32.273261 -0.71383
2005-11-24 11:19:00 51°14.595 2°45.769 -999 4.04921 32.274361 -0.71383
2005-11-24 11:20:00 51°14.605 2°46.103 -999 4.049003 32.275215 -0.71383
2005-11-24 11:21:00 51°14.626 2°46.442 -999 4.048795 32.275395 -0.71383
2005-11-24 11:22:00 51°14.647 2°46.784 -999 4.048692 32.274473 -0.71383
2005-11-24 11:23:00 51°14.671 2°47.117 -999 4.048484 32.275327 -0.74754
2005-11-24 11:24:00 51°14.693 2°47.453 -999 4.048277 32.274832 -0.74754
2005-11-24 11:25:00 51°14.71 2°47.788 -999 4.04807 32.275687 -0.71383
2005-11-24 11:26:00 51°14.718 2°48.122 -999 4.047966 32.276788 -0.71383
2005-11-24 11:27:00 51°14.729 2°48.454 -999 4.047863 32.277216 -0.74754
2005-11-24 11:28:00 51°14.742 2°48.793 -999 4.047655 32.27807 -0.71383
2005-11-24 11:29:00 51°14.749 2°49.139 -999 4.047448 32.277576 -0.71383
2005-11-24 11:30:00 51°14.754 2°49.48 -999 4.047344 32.278003 -0.71383
2005-11-24 11:31:00 51°14.758 2°49.826 -999 4.047241 32.27843 -0.74754
2005-11-24 11:32:00 51°14.767 2°50.166 -999 4.047033 32.279285 -0.74754
2005-11-24 11:33:00 51°14.776 2°50.5 -999 4.046826 32.278791 -0.71383
2005-11-24 11:34:00 51°14.781 2°50.837 -999 4.046722 32.280568 -0.71383
2005-11-24 11:35:00 51°14.782 2°51.176 -999 4.046515 32.280074 -0.71383
2005-11-24 11:36:00 51°14.789 2°51.512 -999 4.046515 32.280074 -0.71383
2005-11-24 11:37:00 51°14.778 2°51.843 -999 4.046308 32.280254 -0.71383
2005-11-24 11:38:00 51°14.773 2°52.177 -999 4.046204 32.282033 -0.71383
2005-11-24 11:39:00 51°14.773 2°52.514 -999 4.045997 32.281538 -0.74754
2005-11-24 11:40:00 51°14.769 2°52.847 -999 4.045893 32.281291 -0.71383
2005-11-24 11:41:00 51°14.758 2°53.186 -999 4.04579 32.281719 -0.74754
2005-11-24 11:42:00 51°14.747 2°53.529 -999 4.045686 32.283497 -0.71383
2005-11-24 11:43:00 51°14.724 2°53.866 -999 4.045582 32.284601 -0.74754
2005-11-24 11:44:00 51°14.659 2°54.182 -999 4.045375 32.283431 -0.71383
2005-11-24 11:45:00 51°14.58 2°54.491 -999 4.045271 32.283184 -0.71383
2005-11-24 11:46:00 51°14.477 2°54.768 -999 4.045168 32.282937 -0.71383
2005-11-24 11:47:00 51°14.367 2°55.024 -999 4.045064 32.285391 -0.71383
2005-11-24 11:48:00 51°14.265 2°55.24 -999 4.044857 32.284222 -0.71383
2005-11-24 11:49:00 51°14.142 2°55.403 -999 4.044753 32.286001 -0.71383
2005-11-24 11:50:00 51°14.02 2°55.494 -999 4.04465 32.287781 -0.71383
2005-11-24 11:51:00 51°13.91 2°55.577 -999 4.044442 32.289314 -0.71383
2005-11-24 11:52:00 51°13.804 2°55.661 -999 4.044131 32.289249 -0.71383
2005-11-24 11:53:00 51°13.717 2°55.783 -999 4.043924 32.290783 -0.71383
2005-11-24 11:54:00 51°13.657 2°55.902 -999 4.043509 32.29047 -0.71383
2005-11-24 11:55:00 51°13.62 2°55.993 -999 4.043095 32.290834 -0.71383
2005-11-24 11:56:00 51°13.595 2°56.072 -999 4.04268 32.290522 -0.71383
2005-11-24 11:57:00 51°13.582 2°56.12 -999 4.042369 32.291134 -0.74754
2005-11-24 11:58:00 51°13.577 2°56.13 -999 4.041955 32.289469 -0.71383
2005-11-24 11:59:01 51°13.579 2°56.136 -999 4.041644 32.289404 -0.74754
2005-11-24 12:00:04 51°13.579 2°56.136 -999 4.041333 32.287986 -0.74754